sensor_id;sensor_type;location;lat;lon;timestamp;P1;durP1;ratioP1;P2;durP2;ratioP2
15261;SDS011;7733;51.554;13.590;2022-10-16T00:01:25;1.70;;;1.70;;
15261;SDS011;7733;51.554;13.590;2022-10-16T00:03:55;1.63;;;1.53;;
15261;SDS011;7733;51.554;13.590;2022-10-16T00:06:23;1.87;;;1.80;;
15261;SDS011;7733;51.554;13.590;2022-10-16T00:08:50;1.70;;;1.70;;
15261;SDS011;7733;51.554;13.590;2022-10-16T00:11:18;2.27;;;1.60;;
15261;SDS011;7733;51.554;13.590;2022-10-16T00:13:50;1.80;;;1.70;;
15261;SDS011;7733;51.554;13.590;2022-10-16T00:16:19;1.77;;;1.60;;
15261;SDS011;7733;51.554;13.590;2022-10-16T00:18:45;1.33;;;1.30;;
15261;SDS011;7733;51.554;13.590;2022-10-16T00:21:12;1.37;;;1.37;;
15261;SDS011;7733;51.554;13.590;2022-10-16T00:23:41;1.70;;;1.70;;
15261;SDS011;7733;51.554;13.590;2022-10-16T00:26:09;1.47;;;1.40;;
15261;SDS011;7733;51.554;13.590;2022-10-16T00:28:39;1.63;;;1.40;;
15261;SDS011;7733;51.554;13.590;2022-10-16T00:31:06;1.57;;;1.37;;
15261;SDS011;7733;51.554;13.590;2022-10-16T00:33:34;1.43;;;1.33;;
15261;SDS011;7733;51.554;13.590;2022-10-16T00:36:03;1.70;;;1.70;;
15261;SDS011;7733;51.554;13.590;2022-10-16T00:38:31;1.30;;;1.23;;
15261;SDS011;7733;51.554;13.590;2022-10-16T00:40:56;1.40;;;1.40;;
15261;SDS011;7733;51.554;13.590;2022-10-16T00:46:21;1.20;;;1.20;;
15261;SDS011;7733;51.554;13.590;2022-10-16T00:49:10;1.60;;;1.50;;
15261;SDS011;7733;51.554;13.590;2022-10-16T00:51:41;1.70;;;1.60;;
15261;SDS011;7733;51.554;13.590;2022-10-16T00:54:10;1.33;;;1.33;;
15261;SDS011;7733;51.554;13.590;2022-10-16T00:56:41;1.47;;;1.47;;
15261;SDS011;7733;51.554;13.590;2022-10-16T00:59:11;1.60;;;1.50;;
15261;SDS011;7733;51.554;13.590;2022-10-16T01:01:46;1.50;;;1.50;;
15261;SDS011;7733;51.554;13.590;2022-10-16T01:04:12;1.93;;;1.70;;
15261;SDS011;7733;51.554;13.590;2022-10-16T01:09:57;1.60;;;1.50;;
15261;SDS011;7733;51.554;13.590;2022-10-16T01:13:07;1.67;;;1.57;;
15261;SDS011;7733;51.554;13.590;2022-10-16T01:16:04;1.80;;;1.70;;
15261;SDS011;7733;51.554;13.590;2022-10-16T01:18:47;1.60;;;1.50;;
15261;SDS011;7733;51.554;13.590;2022-10-16T01:21:32;1.57;;;1.57;;
15261;SDS011;7733;51.554;13.590;2022-10-16T01:24:27;1.50;;;1.50;;
15261;SDS011;7733;51.554;13.590;2022-10-16T01:32:32;1.70;;;1.70;;
15261;SDS011;7733;51.554;13.590;2022-10-16T01:35:17;1.40;;;1.40;;
15261;SDS011;7733;51.554;13.590;2022-10-16T01:37:55;1.23;;;1.07;;
15261;SDS011;7733;51.554;13.590;2022-10-16T01:40:33;1.40;;;1.40;;
15261;SDS011;7733;51.554;13.590;2022-10-16T01:43:04;1.50;;;1.40;;
15261;SDS011;7733;51.554;13.590;2022-10-16T01:45:36;1.20;;;1.20;;
15261;SDS011;7733;51.554;13.590;2022-10-16T01:48:02;1.37;;;1.30;;
15261;SDS011;7733;51.554;13.590;2022-10-16T01:50:33;1.17;;;1.10;;
15261;SDS011;7733;51.554;13.590;2022-10-16T01:53:05;1.30;;;0.90;;
15261;SDS011;7733;51.554;13.590;2022-10-16T01:55:35;2.30;;;1.10;;
15261;SDS011;7733;51.554;13.590;2022-10-16T01:58:08;0.90;;;0.90;;
15261;SDS011;7733;51.554;13.590;2022-10-16T02:00:37;1.63;;;1.07;;
15261;SDS011;7733;51.554;13.590;2022-10-16T02:03:06;1.07;;;1.07;;
15261;SDS011;7733;51.554;13.590;2022-10-16T02:05:38;1.27;;;0.97;;
15261;SDS011;7733;51.554;13.590;2022-10-16T02:08:11;0.93;;;0.93;;
15261;SDS011;7733;51.554;13.590;2022-10-16T02:10:37;0.87;;;0.80;;
15261;SDS011;7733;51.554;13.590;2022-10-16T02:13:06;0.87;;;0.87;;
15261;SDS011;7733;51.554;13.590;2022-10-16T02:16:13;0.80;;;0.80;;
15261;SDS011;7733;51.554;13.590;2022-10-16T02:18:40;0.70;;;0.70;;
15261;SDS011;7733;51.554;13.590;2022-10-16T02:24:02;0.80;;;0.80;;
15261;SDS011;7733;51.554;13.590;2022-10-16T02:26:43;2.20;;;0.93;;
15261;SDS011;7733;51.554;13.590;2022-10-16T02:29:16;0.77;;;0.67;;
15261;SDS011;7733;51.554;13.590;2022-10-16T02:31:49;1.07;;;0.80;;
15261;SDS011;7733;51.554;13.590;2022-10-16T02:34:22;0.80;;;0.80;;
15261;SDS011;7733;51.554;13.590;2022-10-16T02:36:52;0.60;;;0.60;;
15261;SDS011;7733;51.554;13.590;2022-10-16T02:39:19;0.70;;;0.70;;
15261;SDS011;7733;51.554;13.590;2022-10-16T02:41:46;1.37;;;0.70;;
15261;SDS011;7733;51.554;13.590;2022-10-16T02:44:12;1.00;;;1.00;;
15261;SDS011;7733;51.554;13.590;2022-10-16T02:46:38;0.97;;;0.97;;
15261;SDS011;7733;51.554;13.590;2022-10-16T02:49:04;0.70;;;0.70;;
15261;SDS011;7733;51.554;13.590;2022-10-16T02:51:29;1.03;;;0.80;;
15261;SDS011;7733;51.554;13.590;2022-10-16T02:53:55;0.73;;;0.70;;
15261;SDS011;7733;51.554;13.590;2022-10-16T02:56:21;1.87;;;0.63;;
15261;SDS011;7733;51.554;13.590;2022-10-16T02:58:46;0.60;;;0.60;;
15261;SDS011;7733;51.554;13.590;2022-10-16T03:01:12;2.43;;;0.77;;
15261;SDS011;7733;51.554;13.590;2022-10-16T03:03:39;0.87;;;0.60;;
15261;SDS011;7733;51.554;13.590;2022-10-16T03:06:05;0.60;;;0.60;;
15261;SDS011;7733;51.554;13.590;2022-10-16T03:08:31;0.67;;;0.60;;
15261;SDS011;7733;51.554;13.590;2022-10-16T03:10:56;1.03;;;0.60;;
15261;SDS011;7733;51.554;13.590;2022-10-16T03:13:22;0.90;;;0.60;;
15261;SDS011;7733;51.554;13.590;2022-10-16T03:15:47;0.53;;;0.53;;
15261;SDS011;7733;51.554;13.590;2022-10-16T03:18:13;0.80;;;0.70;;
15261;SDS011;7733;51.554;13.590;2022-10-16T03:20:39;0.70;;;0.70;;
15261;SDS011;7733;51.554;13.590;2022-10-16T03:23:05;1.07;;;0.70;;
15261;SDS011;7733;51.554;13.590;2022-10-16T03:25:33;0.70;;;0.60;;
15261;SDS011;7733;51.554;13.590;2022-10-16T03:27:58;0.80;;;0.80;;
15261;SDS011;7733;51.554;13.590;2022-10-16T03:30:24;0.50;;;0.50;;
15261;SDS011;7733;51.554;13.590;2022-10-16T03:32:49;1.83;;;0.70;;
15261;SDS011;7733;51.554;13.590;2022-10-16T03:35:18;0.60;;;0.60;;
15261;SDS011;7733;51.554;13.590;2022-10-16T03:37:49;0.50;;;0.50;;
15261;SDS011;7733;51.554;13.590;2022-10-16T03:40:16;0.63;;;0.63;;
15261;SDS011;7733;51.554;13.590;2022-10-16T03:42:42;0.70;;;0.70;;
15261;SDS011;7733;51.554;13.590;2022-10-16T03:45:08;0.70;;;0.60;;
15261;SDS011;7733;51.554;13.590;2022-10-16T03:47:36;1.17;;;0.50;;
15261;SDS011;7733;51.554;13.590;2022-10-16T03:50:01;1.13;;;0.80;;
15261;SDS011;7733;51.554;13.590;2022-10-16T03:52:28;1.67;;;0.80;;
15261;SDS011;7733;51.554;13.590;2022-10-16T03:54:54;0.53;;;0.53;;
15261;SDS011;7733;51.554;13.590;2022-10-16T03:57:20;0.60;;;0.60;;
15261;SDS011;7733;51.554;13.590;2022-10-16T03:59:46;0.60;;;0.60;;
15261;SDS011;7733;51.554;13.590;2022-10-16T04:02:12;0.40;;;0.40;;
15261;SDS011;7733;51.554;13.590;2022-10-16T04:04:38;0.60;;;0.60;;
15261;SDS011;7733;51.554;13.590;2022-10-16T04:07:03;0.60;;;0.60;;
15261;SDS011;7733;51.554;13.590;2022-10-16T04:09:29;0.87;;;0.87;;
15261;SDS011;7733;51.554;13.590;2022-10-16T04:11:55;1.03;;;0.80;;
15261;SDS011;7733;51.554;13.590;2022-10-16T04:14:21;0.80;;;0.80;;
15261;SDS011;7733;51.554;13.590;2022-10-16T04:16:47;0.70;;;0.70;;
15261;SDS011;7733;51.554;13.590;2022-10-16T04:19:12;1.40;;;0.67;;
15261;SDS011;7733;51.554;13.590;2022-10-16T04:21:38;1.20;;;0.60;;
15261;SDS011;7733;51.554;13.590;2022-10-16T04:24:04;0.50;;;0.50;;
15261;SDS011;7733;51.554;13.590;2022-10-16T04:26:30;0.50;;;0.50;;
15261;SDS011;7733;51.554;13.590;2022-10-16T04:28:56;0.73;;;0.50;;
15261;SDS011;7733;51.554;13.590;2022-10-16T04:31:22;0.70;;;0.70;;
15261;SDS011;7733;51.554;13.590;2022-10-16T04:33:47;0.73;;;0.73;;
15261;SDS011;7733;51.554;13.590;2022-10-16T04:36:13;0.70;;;0.70;;
15261;SDS011;7733;51.554;13.590;2022-10-16T04:38:39;1.50;;;0.80;;
15261;SDS011;7733;51.554;13.590;2022-10-16T04:41:05;0.70;;;0.70;;
15261;SDS011;7733;51.554;13.590;2022-10-16T04:43:32;0.93;;;0.80;;
15261;SDS011;7733;51.554;13.590;2022-10-16T04:45:58;0.70;;;0.70;;
15261;SDS011;7733;51.554;13.590;2022-10-16T04:48:24;0.70;;;0.70;;
15261;SDS011;7733;51.554;13.590;2022-10-16T04:50:50;0.60;;;0.60;;
15261;SDS011;7733;51.554;13.590;2022-10-16T04:53:15;0.63;;;0.63;;
15261;SDS011;7733;51.554;13.590;2022-10-16T04:55:41;1.80;;;0.67;;
15261;SDS011;7733;51.554;13.590;2022-10-16T04:58:07;0.73;;;0.67;;
15261;SDS011;7733;51.554;13.590;2022-10-16T05:00:33;1.03;;;0.70;;
15261;SDS011;7733;51.554;13.590;2022-10-16T05:02:59;1.60;;;0.63;;
15261;SDS011;7733;51.554;13.590;2022-10-16T05:05:26;0.60;;;0.60;;
15261;SDS011;7733;51.554;13.590;2022-10-16T05:07:53;1.20;;;0.70;;
15261;SDS011;7733;51.554;13.590;2022-10-16T05:10:19;0.60;;;0.57;;
15261;SDS011;7733;51.554;13.590;2022-10-16T05:12:45;0.50;;;0.50;;
15261;SDS011;7733;51.554;13.590;2022-10-16T05:15:11;0.93;;;0.77;;
15261;SDS011;7733;51.554;13.590;2022-10-16T05:17:37;0.70;;;0.70;;
15261;SDS011;7733;51.554;13.590;2022-10-16T05:20:03;0.63;;;0.63;;
15261;SDS011;7733;51.554;13.590;2022-10-16T05:22:29;1.20;;;0.70;;
15261;SDS011;7733;51.554;13.590;2022-10-16T05:24:55;1.37;;;0.70;;
15261;SDS011;7733;51.554;13.590;2022-10-16T05:27:20;0.73;;;0.73;;
15261;SDS011;7733;51.554;13.590;2022-10-16T05:29:46;0.67;;;0.67;;
15261;SDS011;7733;51.554;13.590;2022-10-16T05:32:14;0.80;;;0.80;;
15261;SDS011;7733;51.554;13.590;2022-10-16T05:34:41;1.70;;;0.90;;
15261;SDS011;7733;51.554;13.590;2022-10-16T05:37:08;1.90;;;1.80;;
15261;SDS011;7733;51.554;13.590;2022-10-16T05:39:34;4.37;;;3.50;;
15261;SDS011;7733;51.554;13.590;2022-10-16T05:41:59;3.27;;;3.03;;
15261;SDS011;7733;51.554;13.590;2022-10-16T05:44:25;2.43;;;2.30;;
15261;SDS011;7733;51.554;13.590;2022-10-16T05:46:50;1.50;;;1.47;;
15261;SDS011;7733;51.554;13.590;2022-10-16T05:49:16;1.47;;;1.40;;
15261;SDS011;7733;51.554;13.590;2022-10-16T05:51:48;1.20;;;1.10;;
15261;SDS011;7733;51.554;13.590;2022-10-16T05:54:14;0.80;;;0.80;;
15261;SDS011;7733;51.554;13.590;2022-10-16T05:56:39;1.07;;;1.00;;
15261;SDS011;7733;51.554;13.590;2022-10-16T05:59:05;0.90;;;0.90;;
15261;SDS011;7733;51.554;13.590;2022-10-16T06:01:31;2.40;;;1.20;;
15261;SDS011;7733;51.554;13.590;2022-10-16T06:03:57;3.40;;;1.13;;
15261;SDS011;7733;51.554;13.590;2022-10-16T06:06:24;1.53;;;0.93;;
15261;SDS011;7733;51.554;13.590;2022-10-16T06:08:52;0.80;;;0.80;;
15261;SDS011;7733;51.554;13.590;2022-10-16T06:11:22;1.67;;;0.90;;
15261;SDS011;7733;51.554;13.590;2022-10-16T06:13:55;0.80;;;0.80;;
15261;SDS011;7733;51.554;13.590;2022-10-16T06:16:24;2.90;;;1.00;;
15261;SDS011;7733;51.554;13.590;2022-10-16T06:18:51;1.00;;;1.00;;
15261;SDS011;7733;51.554;13.590;2022-10-16T06:21:24;3.03;;;1.20;;
15261;SDS011;7733;51.554;13.590;2022-10-16T06:23:51;1.20;;;1.10;;
15261;SDS011;7733;51.554;13.590;2022-10-16T06:26:18;1.40;;;1.30;;
15261;SDS011;7733;51.554;13.590;2022-10-16T06:28:48;1.23;;;1.20;;
15261;SDS011;7733;51.554;13.590;2022-10-16T06:31:15;1.00;;;1.00;;
15261;SDS011;7733;51.554;13.590;2022-10-16T06:33:42;2.03;;;1.20;;
15261;SDS011;7733;51.554;13.590;2022-10-16T06:36:09;1.10;;;1.10;;
15261;SDS011;7733;51.554;13.590;2022-10-16T06:38:41;1.13;;;1.00;;
15261;SDS011;7733;51.554;13.590;2022-10-16T06:41:09;0.93;;;0.93;;
15261;SDS011;7733;51.554;13.590;2022-10-16T06:43:40;2.70;;;1.20;;
15261;SDS011;7733;51.554;13.590;2022-10-16T06:46:07;1.30;;;1.30;;
15261;SDS011;7733;51.554;13.590;2022-10-16T06:48:35;1.50;;;1.50;;
15261;SDS011;7733;51.554;13.590;2022-10-16T06:51:03;1.20;;;1.20;;
15261;SDS011;7733;51.554;13.590;2022-10-16T06:53:45;1.83;;;1.30;;
15261;SDS011;7733;51.554;13.590;2022-10-16T06:56:20;1.50;;;1.40;;
15261;SDS011;7733;51.554;13.590;2022-10-16T06:58:49;1.43;;;1.30;;
15261;SDS011;7733;51.554;13.590;2022-10-16T07:01:16;1.43;;;1.43;;
15261;SDS011;7733;51.554;13.590;2022-10-16T07:03:43;1.33;;;1.33;;
15261;SDS011;7733;51.554;13.590;2022-10-16T07:06:12;1.47;;;1.47;;
15261;SDS011;7733;51.554;13.590;2022-10-16T07:08:41;1.47;;;1.20;;
15261;SDS011;7733;51.554;13.590;2022-10-16T07:11:10;1.07;;;1.07;;
15261;SDS011;7733;51.554;13.590;2022-10-16T07:13:42;3.10;;;1.40;;
15261;SDS011;7733;51.554;13.590;2022-10-16T07:18:41;1.00;;;1.00;;
15261;SDS011;7733;51.554;13.590;2022-10-16T07:21:11;2.20;;;1.10;;
15261;SDS011;7733;51.554;13.590;2022-10-16T07:23:51;1.20;;;1.10;;
15261;SDS011;7733;51.554;13.590;2022-10-16T07:26:21;1.63;;;1.10;;
15261;SDS011;7733;51.554;13.590;2022-10-16T07:28:48;1.33;;;1.10;;
15261;SDS011;7733;51.554;13.590;2022-10-16T07:31:15;1.50;;;1.07;;
15261;SDS011;7733;51.554;13.590;2022-10-16T07:33:43;1.10;;;1.10;;
15261;SDS011;7733;51.554;13.590;2022-10-16T07:36:10;0.90;;;0.90;;
15261;SDS011;7733;51.554;13.590;2022-10-16T07:38:37;0.97;;;0.97;;
15261;SDS011;7733;51.554;13.590;2022-10-16T07:41:04;0.87;;;0.87;;
15261;SDS011;7733;51.554;13.590;2022-10-16T07:43:32;0.67;;;0.67;;
15261;SDS011;7733;51.554;13.590;2022-10-16T07:45:58;1.37;;;0.77;;
15261;SDS011;7733;51.554;13.590;2022-10-16T07:48:29;0.90;;;0.90;;
15261;SDS011;7733;51.554;13.590;2022-10-16T07:50:58;1.70;;;0.90;;
15261;SDS011;7733;51.554;13.590;2022-10-16T07:53:26;0.83;;;0.80;;
15261;SDS011;7733;51.554;13.590;2022-10-16T07:55:59;4.83;;;0.70;;
15261;SDS011;7733;51.554;13.590;2022-10-16T07:58:28;0.80;;;0.80;;
15261;SDS011;7733;51.554;13.590;2022-10-16T08:00:54;0.70;;;0.70;;
15261;SDS011;7733;51.554;13.590;2022-10-16T08:03:20;2.30;;;0.60;;
15261;SDS011;7733;51.554;13.590;2022-10-16T08:05:46;0.50;;;0.50;;
15261;SDS011;7733;51.554;13.590;2022-10-16T08:08:16;0.60;;;0.50;;
15261;SDS011;7733;51.554;13.590;2022-10-16T08:10:43;1.20;;;0.80;;
15261;SDS011;7733;51.554;13.590;2022-10-16T08:13:09;0.60;;;0.60;;
15261;SDS011;7733;51.554;13.590;2022-10-16T08:15:35;0.70;;;0.70;;
15261;SDS011;7733;51.554;13.590;2022-10-16T08:18:02;1.67;;;0.93;;
15261;SDS011;7733;51.554;13.590;2022-10-16T08:20:30;1.40;;;0.80;;
15261;SDS011;7733;51.554;13.590;2022-10-16T08:22:58;0.80;;;0.63;;
15261;SDS011;7733;51.554;13.590;2022-10-16T08:25:25;0.70;;;0.70;;
15261;SDS011;7733;51.554;13.590;2022-10-16T08:27:51;0.50;;;0.50;;
15261;SDS011;7733;51.554;13.590;2022-10-16T08:30:17;0.67;;;0.67;;
15261;SDS011;7733;51.554;13.590;2022-10-16T08:32:45;1.80;;;1.70;;
15261;SDS011;7733;51.554;13.590;2022-10-16T08:35:11;0.90;;;0.90;;
15261;SDS011;7733;51.554;13.590;2022-10-16T08:37:39;1.30;;;0.80;;
15261;SDS011;7733;51.554;13.590;2022-10-16T08:40:06;0.67;;;0.67;;
15261;SDS011;7733;51.554;13.590;2022-10-16T08:45:34;1.93;;;1.00;;
15261;SDS011;7733;51.554;13.590;2022-10-16T08:51:07;1.57;;;1.47;;
15261;SDS011;7733;51.554;13.590;2022-10-16T08:53:44;0.93;;;0.93;;
15261;SDS011;7733;51.554;13.590;2022-10-16T08:56:18;1.67;;;0.90;;
15261;SDS011;7733;51.554;13.590;2022-10-16T08:58:44;0.80;;;0.80;;
15261;SDS011;7733;51.554;13.590;2022-10-16T09:01:13;1.13;;;0.70;;
15261;SDS011;7733;51.554;13.590;2022-10-16T09:03:48;0.70;;;0.70;;
15261;SDS011;7733;51.554;13.590;2022-10-16T09:07:00;0.50;;;0.50;;
15261;SDS011;7733;51.554;13.590;2022-10-16T09:13:18;0.40;;;0.40;;
15261;SDS011;7733;51.554;13.590;2022-10-16T09:18:54;0.37;;;0.30;;
15261;SDS011;7733;51.554;13.590;2022-10-16T09:21:45;0.40;;;0.33;;
15261;SDS011;7733;51.554;13.590;2022-10-16T09:24:16;1.30;;;0.30;;
15261;SDS011;7733;51.554;13.590;2022-10-16T09:26:45;0.27;;;0.27;;
15261;SDS011;7733;51.554;13.590;2022-10-16T09:29:12;0.30;;;0.30;;
15261;SDS011;7733;51.554;13.590;2022-10-16T09:31:40;0.20;;;0.20;;
15261;SDS011;7733;51.554;13.590;2022-10-16T09:34:11;0.40;;;0.30;;
15261;SDS011;7733;51.554;13.590;2022-10-16T09:36:55;0.20;;;0.20;;
15261;SDS011;7733;51.554;13.590;2022-10-16T09:39:23;0.37;;;0.37;;
15261;SDS011;7733;51.554;13.590;2022-10-16T09:41:49;0.33;;;0.30;;
15261;SDS011;7733;51.554;13.590;2022-10-16T09:44:18;0.30;;;0.30;;
15261;SDS011;7733;51.554;13.590;2022-10-16T09:47:28;0.30;;;0.30;;
15261;SDS011;7733;51.554;13.590;2022-10-16T09:52:26;0.90;;;0.50;;
15261;SDS011;7733;51.554;13.590;2022-10-16T09:57:22;0.43;;;0.30;;
15261;SDS011;7733;51.554;13.590;2022-10-16T09:59:53;1.40;;;0.30;;
15261;SDS011;7733;51.554;13.590;2022-10-16T10:02:34;0.30;;;0.30;;
15261;SDS011;7733;51.554;13.590;2022-10-16T10:05:04;0.20;;;0.20;;
15261;SDS011;7733;51.554;13.590;2022-10-16T10:07:42;0.63;;;0.20;;
15261;SDS011;7733;51.554;13.590;2022-10-16T10:10:20;0.27;;;0.27;;
15261;SDS011;7733;51.554;13.590;2022-10-16T10:12:49;1.03;;;0.30;;
15261;SDS011;7733;51.554;13.590;2022-10-16T10:15:15;0.47;;;0.30;;
15261;SDS011;7733;51.554;13.590;2022-10-16T10:17:52;0.27;;;0.27;;
15261;SDS011;7733;51.554;13.590;2022-10-16T10:20:22;0.77;;;0.40;;
15261;SDS011;7733;51.554;13.590;2022-10-16T10:22:48;0.30;;;0.30;;
15261;SDS011;7733;51.554;13.590;2022-10-16T10:25:23;0.20;;;0.20;;
15261;SDS011;7733;51.554;13.590;2022-10-16T10:30:44;0.20;;;0.20;;
15261;SDS011;7733;51.554;13.590;2022-10-16T10:39:08;0.40;;;0.40;;
15261;SDS011;7733;51.554;13.590;2022-10-16T10:42:05;0.30;;;0.30;;
15261;SDS011;7733;51.554;13.590;2022-10-16T10:50:25;0.30;;;0.30;;
15261;SDS011;7733;51.554;13.590;2022-10-16T10:59:27;0.90;;;0.50;;
15261;SDS011;7733;51.554;13.590;2022-10-16T11:05:37;0.40;;;0.40;;
15261;SDS011;7733;51.554;13.590;2022-10-16T11:08:10;0.30;;;0.30;;
15261;SDS011;7733;51.554;13.590;2022-10-16T11:11:00;0.40;;;0.40;;
15261;SDS011;7733;51.554;13.590;2022-10-16T11:14:14;0.43;;;0.40;;
15261;SDS011;7733;51.554;13.590;2022-10-16T11:16:53;1.43;;;0.80;;
15261;SDS011;7733;51.554;13.590;2022-10-16T11:19:31;1.37;;;1.33;;
15261;SDS011;7733;51.554;13.590;2022-10-16T11:22:11;1.70;;;0.40;;
15261;SDS011;7733;51.554;13.590;2022-10-16T11:24:50;0.90;;;0.30;;
15261;SDS011;7733;51.554;13.590;2022-10-16T11:27:41;0.40;;;0.40;;
15261;SDS011;7733;51.554;13.590;2022-10-16T11:30:19;0.87;;;0.57;;
15261;SDS011;7733;51.554;13.590;2022-10-16T11:33:03;0.50;;;0.50;;
15261;SDS011;7733;51.554;13.590;2022-10-16T11:35:37;3.60;;;0.43;;
15261;SDS011;7733;51.554;13.590;2022-10-16T11:38:10;2.73;;;2.63;;
15261;SDS011;7733;51.554;13.590;2022-10-16T11:40:47;1.20;;;1.20;;
15261;SDS011;7733;51.554;13.590;2022-10-16T11:43:25;0.40;;;0.40;;
15261;SDS011;7733;51.554;13.590;2022-10-16T11:46:10;2.70;;;0.60;;
15261;SDS011;7733;51.554;13.590;2022-10-16T11:48:49;1.07;;;0.50;;
15261;SDS011;7733;51.554;13.590;2022-10-16T11:54:21;0.40;;;0.30;;
15261;SDS011;7733;51.554;13.590;2022-10-16T11:57:13;0.50;;;0.50;;
15261;SDS011;7733;51.554;13.590;2022-10-16T11:59:59;0.53;;;0.53;;
15261;SDS011;7733;51.554;13.590;2022-10-16T12:08:26;1.23;;;0.60;;
15261;SDS011;7733;51.554;13.590;2022-10-16T12:10:53;0.83;;;0.30;;
15261;SDS011;7733;51.554;13.590;2022-10-16T12:13:44;0.40;;;0.40;;
15261;SDS011;7733;51.554;13.590;2022-10-16T12:18:42;0.40;;;0.40;;
15261;SDS011;7733;51.554;13.590;2022-10-16T12:21:11;0.47;;;0.40;;
15261;SDS011;7733;51.554;13.590;2022-10-16T12:23:51;0.60;;;0.60;;
15261;SDS011;7733;51.554;13.590;2022-10-16T12:26:27;1.03;;;0.47;;
15261;SDS011;7733;51.554;13.590;2022-10-16T12:29:10;2.67;;;0.40;;
15261;SDS011;7733;51.554;13.590;2022-10-16T12:35:01;0.80;;;0.80;;
15261;SDS011;7733;51.554;13.590;2022-10-16T12:37:31;0.60;;;0.60;;
15261;SDS011;7733;51.554;13.590;2022-10-16T12:40:22;0.67;;;0.67;;
15261;SDS011;7733;51.554;13.590;2022-10-16T12:42:56;0.30;;;0.30;;
15261;SDS011;7733;51.554;13.590;2022-10-16T12:45:31;0.43;;;0.43;;
15261;SDS011;7733;51.554;13.590;2022-10-16T12:48:02;1.07;;;0.57;;
15261;SDS011;7733;51.554;13.590;2022-10-16T12:50:45;0.30;;;0.30;;
15261;SDS011;7733;51.554;13.590;2022-10-16T12:53:18;1.13;;;0.53;;
15261;SDS011;7733;51.554;13.590;2022-10-16T12:59:01;0.30;;;0.30;;
15261;SDS011;7733;51.554;13.590;2022-10-16T13:05:34;3.30;;;0.90;;
15261;SDS011;7733;51.554;13.590;2022-10-16T13:20:23;0.80;;;0.80;;
15261;SDS011;7733;51.554;13.590;2022-10-16T13:25:56;4.37;;;0.70;;
15261;SDS011;7733;51.554;13.590;2022-10-16T13:28:41;0.53;;;0.53;;
15261;SDS011;7733;51.554;13.590;2022-10-16T13:31:18;0.57;;;0.50;;
15261;SDS011;7733;51.554;13.590;2022-10-16T13:33:49;0.77;;;0.60;;
15261;SDS011;7733;51.554;13.590;2022-10-16T13:36:21;1.03;;;0.60;;
15261;SDS011;7733;51.554;13.590;2022-10-16T13:39:51;0.50;;;0.50;;
15261;SDS011;7733;51.554;13.590;2022-10-16T13:42:01;1.37;;;0.63;;
15261;SDS011;7733;51.554;13.590;2022-10-16T13:44:48;0.43;;;0.43;;
15261;SDS011;7733;51.554;13.590;2022-10-16T13:47:23;2.07;;;0.80;;
15261;SDS011;7733;51.554;13.590;2022-10-16T13:52:38;1.53;;;0.77;;
15261;SDS011;7733;51.554;13.590;2022-10-16T13:55:10;0.70;;;0.70;;
15261;SDS011;7733;51.554;13.590;2022-10-16T13:57:39;4.63;;;4.30;;
15261;SDS011;7733;51.554;13.590;2022-10-16T14:00:22;1.33;;;1.30;;
15261;SDS011;7733;51.554;13.590;2022-10-16T14:03:11;0.93;;;0.80;;
15261;SDS011;7733;51.554;13.590;2022-10-16T14:05:43;0.87;;;0.60;;
15261;SDS011;7733;51.554;13.590;2022-10-16T14:08:15;0.67;;;0.67;;
15261;SDS011;7733;51.554;13.590;2022-10-16T14:10:41;0.50;;;0.50;;
15261;SDS011;7733;51.554;13.590;2022-10-16T14:13:07;0.60;;;0.60;;
15261;SDS011;7733;51.554;13.590;2022-10-16T14:15:45;0.97;;;0.70;;
15261;SDS011;7733;51.554;13.590;2022-10-16T14:18:18;0.60;;;0.60;;
15261;SDS011;7733;51.554;13.590;2022-10-16T14:20:49;0.70;;;0.70;;
15261;SDS011;7733;51.554;13.590;2022-10-16T14:23:22;1.50;;;1.50;;
15261;SDS011;7733;51.554;13.590;2022-10-16T14:26:40;2.50;;;2.40;;
15261;SDS011;7733;51.554;13.590;2022-10-16T14:29:14;1.37;;;1.00;;
15261;SDS011;7733;51.554;13.590;2022-10-16T14:31:42;0.90;;;0.90;;
15261;SDS011;7733;51.554;13.590;2022-10-16T14:34:25;1.03;;;0.60;;
15261;SDS011;7733;51.554;13.590;2022-10-16T14:36:58;18.13;;;16.40;;
15261;SDS011;7733;51.554;13.590;2022-10-16T14:39:50;4.33;;;3.90;;
15261;SDS011;7733;51.554;13.590;2022-10-16T14:42:17;3.40;;;1.40;;
15261;SDS011;7733;51.554;13.590;2022-10-16T14:44:48;1.53;;;1.50;;
15261;SDS011;7733;51.554;13.590;2022-10-16T14:47:18;1.17;;;1.07;;
15261;SDS011;7733;51.554;13.590;2022-10-16T14:49:51;2.50;;;1.47;;
15261;SDS011;7733;51.554;13.590;2022-10-16T14:52:23;1.60;;;1.60;;
15261;SDS011;7733;51.554;13.590;2022-10-16T14:54:49;1.63;;;1.53;;
15261;SDS011;7733;51.554;13.590;2022-10-16T14:57:20;1.13;;;0.87;;
15261;SDS011;7733;51.554;13.590;2022-10-16T14:59:51;1.10;;;1.00;;
15261;SDS011;7733;51.554;13.590;2022-10-16T15:04:45;0.80;;;0.80;;
15261;SDS011;7733;51.554;13.590;2022-10-16T15:07:12;0.93;;;0.93;;
15261;SDS011;7733;51.554;13.590;2022-10-16T15:09:38;0.87;;;0.70;;
15261;SDS011;7733;51.554;13.590;2022-10-16T15:12:03;0.63;;;0.63;;
15261;SDS011;7733;51.554;13.590;2022-10-16T15:14:29;1.00;;;1.00;;
15261;SDS011;7733;51.554;13.590;2022-10-16T15:16:55;0.80;;;0.80;;
15261;SDS011;7733;51.554;13.590;2022-10-16T15:19:20;0.80;;;0.80;;
15261;SDS011;7733;51.554;13.590;2022-10-16T15:21:46;0.63;;;0.60;;
15261;SDS011;7733;51.554;13.590;2022-10-16T15:24:13;0.80;;;0.80;;
15261;SDS011;7733;51.554;13.590;2022-10-16T15:26:39;0.70;;;0.70;;
15261;SDS011;7733;51.554;13.590;2022-10-16T15:29:04;1.43;;;0.77;;
15261;SDS011;7733;51.554;13.590;2022-10-16T15:31:31;1.70;;;0.80;;
15261;SDS011;7733;51.554;13.590;2022-10-16T15:33:57;0.77;;;0.77;;
15261;SDS011;7733;51.554;13.590;2022-10-16T15:36:41;1.00;;;1.00;;
15261;SDS011;7733;51.554;13.590;2022-10-16T15:39:13;5.60;;;1.03;;
15261;SDS011;7733;51.554;13.590;2022-10-16T15:41:42;3.13;;;1.20;;
15261;SDS011;7733;51.554;13.590;2022-10-16T15:44:15;0.70;;;0.70;;
15261;SDS011;7733;51.554;13.590;2022-10-16T15:46:41;0.70;;;0.70;;
15261;SDS011;7733;51.554;13.590;2022-10-16T15:49:07;1.27;;;0.80;;
15261;SDS011;7733;51.554;13.590;2022-10-16T15:51:37;4.10;;;3.70;;
15261;SDS011;7733;51.554;13.590;2022-10-16T15:54:05;2.40;;;2.30;;
15261;SDS011;7733;51.554;13.590;2022-10-16T15:56:30;2.00;;;1.90;;
15261;SDS011;7733;51.554;13.590;2022-10-16T15:58:58;1.63;;;1.53;;
15261;SDS011;7733;51.554;13.590;2022-10-16T16:01:25;1.30;;;1.30;;
15261;SDS011;7733;51.554;13.590;2022-10-16T16:03:54;1.30;;;1.20;;
15261;SDS011;7733;51.554;13.590;2022-10-16T16:06:21;1.80;;;0.77;;
15261;SDS011;7733;51.554;13.590;2022-10-16T16:08:48;2.77;;;2.67;;
15261;SDS011;7733;51.554;13.590;2022-10-16T16:11:15;3.20;;;3.10;;
15261;SDS011;7733;51.554;13.590;2022-10-16T16:13:42;1.73;;;1.63;;
15261;SDS011;7733;51.554;13.590;2022-10-16T16:16:12;2.40;;;2.20;;
15261;SDS011;7733;51.554;13.590;2022-10-16T16:18:41;3.40;;;3.10;;
15261;SDS011;7733;51.554;13.590;2022-10-16T16:21:09;2.47;;;2.20;;
15261;SDS011;7733;51.554;13.590;2022-10-16T16:23:36;2.70;;;2.37;;
15261;SDS011;7733;51.554;13.590;2022-10-16T16:28:51;2.80;;;2.57;;
15261;SDS011;7733;51.554;13.590;2022-10-16T16:31:19;2.33;;;2.23;;
15261;SDS011;7733;51.554;13.590;2022-10-16T16:33:48;1.70;;;1.50;;
15261;SDS011;7733;51.554;13.590;2022-10-16T16:36:13;2.03;;;1.90;;
15261;SDS011;7733;51.554;13.590;2022-10-16T16:38:39;3.00;;;2.90;;
15261;SDS011;7733;51.554;13.590;2022-10-16T16:41:15;10.67;;;9.57;;
15261;SDS011;7733;51.554;13.590;2022-10-16T16:43:43;16.83;;;15.10;;
15261;SDS011;7733;51.554;13.590;2022-10-16T16:46:10;17.67;;;16.07;;
15261;SDS011;7733;51.554;13.590;2022-10-16T16:48:36;25.60;;;22.30;;
15261;SDS011;7733;51.554;13.590;2022-10-16T16:51:03;33.17;;;27.93;;
15261;SDS011;7733;51.554;13.590;2022-10-16T16:53:34;18.23;;;16.33;;
15261;SDS011;7733;51.554;13.590;2022-10-16T16:56:04;14.13;;;12.70;;